KASX/ASX METAR and TAF weather

Enter ICAO airport designator
Station Type Date Time Source
KASX METAR 2018/01/19 22:53 UTC NOAA

KASX 192253Z AUTO 25008KT 10SM CLR 05/M04 A2945 RMK AO2 SLP981 T00501039


Station Type Date Time Source
KASX Decoded METAR 2018/01/19 22:53 UTC NOAA

ASHLAND KENNEDY MEMORIAL, WI, United States (KASX) 46-33N 090-55W 251M
Jan 19, 2018 - 05:53 PM EST / 2018.01.19 2253 UTC
Wind: from the WSW (250 degrees) at 9 MPH (8 KT):0
Visibility: 10 mile(s):0
Sky conditions: clear
Temperature: 41.0 F (5.0 C)
Dew Point: 25.0 F (-3.9 C)
Relative Humidity: 52%
Pressure (altimeter): 29.45 in. Hg (997 hPa)
ob: KASX 192253Z AUTO 25008KT 10SM CLR 05/M04 A2945 RMK AO2 SLP981 T00501039
cycle: 23

Station Type Date Time Source
KASX TAF UTC NOAA

Error!


Example: see airport list